Time;durP1;ratioP1;P1;durP2;ratioP2;P2;SDS_P1;SDS_P2;PMS_P1;PMS_P2;Temp;Humidity;BMP_temperature;BMP_pressure;BME280_temperature;BME280_humidity;BME280_pressure;Samples;Min_cycle;Max_cycle;Signal;HPM_P1;HPM_P2
2022/05/25 00:00:57;;;;;;;8.80;7.35;;;11.00;99.90;;;;;;5044246;28;20033;-84
2022/05/25 00:03:25;;;;;;;8.35;7.40;;;11.00;99.90;;;;;;5020065;28;20385;-84
2022/05/25 00:05:51;;;;;;;7.32;5.18;;;11.00;99.90;;;;;;5016514;28;20051;-84
2022/05/25 00:08:28;;;;;;;5.90;5.07;;;11.00;99.90;;;;;;5040031;28;20037;-83
2022/05/25 00:11:09;;;;;;;7.35;6.60;;;11.00;99.90;;;;;;5047522;28;20021;-82
2022/05/25 00:13:46;;;;;;;6.97;5.60;;;10.90;99.90;;;;;;5050915;28;20028;-83
2022/05/25 00:16:23;;;;;;;8.13;7.32;;;10.90;99.90;;;;;;5029498;28;20052;-83
2022/05/25 00:21:50;;;;;;;7.40;6.57;;;10.90;99.90;;;;;;5005175;28;20783;-83
2022/05/25 00:24:19;;;;;;;9.05;8.15;;;10.80;99.90;;;;;;5016806;28;20029;-82
2022/05/25 00:26:46;;;;;;;8.95;8.05;;;10.80;99.90;;;;;;4978174;28;20041;-83
2022/05/25 00:29:22;;;;;;;9.73;8.80;;;10.80;99.90;;;;;;5020819;28;20029;-83
2022/05/25 00:31:55;;;;;;;9.05;8.25;;;10.80;99.90;;;;;;5026020;28;20025;-82
2022/05/25 00:34:25;;;;;;;10.45;8.07;;;10.80;99.90;;;;;;5024340;28;20045;-83
2022/05/25 00:36:55;;;;;;;9.70;8.25;;;10.80;99.90;;;;;;4984651;28;20481;-83
2022/05/25 00:39:23;;;;;;;8.80;7.90;;;10.80;99.90;;;;;;5006036;28;20053;-82
2022/05/25 00:41:55;;;;;;;9.65;8.75;;;10.80;99.90;;;;;;5015908;28;20045;-82
2022/05/25 00:44:28;;;;;;;9.98;8.95;;;10.70;99.90;;;;;;5010900;28;20025;-82
2022/05/25 00:46:59;;;;;;;8.75;7.95;;;10.70;99.90;;;;;;5008387;28;20029;-83
2022/05/25 00:49:40;;;;;;;10.27;8.85;;;10.60;99.90;;;;;;5014808;28;20030;-83
2022/05/25 00:52:13;;;;;;;8.70;7.65;;;10.60;99.90;;;;;;5029130;28;20021;-82
2022/05/25 00:54:49;;;;;;;9.48;8.25;;;10.70;99.90;;;;;;5029850;28;20033;-83
2022/05/25 00:57:30;;;;;;;8.18;6.55;;;10.60;99.90;;;;;;5021131;28;20048;-83
2022/05/25 01:00:08;;;;;;;9.43;7.88;;;10.60;99.90;;;;;;5023903;28;20034;-83
2022/05/25 01:02:41;;;;;;;9.05;8.15;;;10.50;99.90;;;;;;5008566;28;20033;-83
2022/05/25 01:05:09;;;;;;;7.90;7.20;;;10.50;99.90;;;;;;5025280;28;20037;-82
2022/05/25 01:08:00;;;;;;;8.40;7.60;;;10.50;99.90;;;;;;5025438;28;20382;-83
2022/05/25 01:10:36;;;;;;;10.70;9.48;;;10.50;99.90;;;;;;5038896;28;20033;-82
2022/05/25 01:13:29;;;;;;;8.10;7.00;;;10.50;99.90;;;;;;5013262;28;20022;-83
2022/05/25 01:16:08;;;;;;;8.80;7.90;;;10.50;99.90;;;;;;5015163;28;20044;-82
2022/05/25 01:18:50;;;;;;;8.43;7.57;;;10.40;99.90;;;;;;5002337;28;20101;-82
2022/05/25 01:21:53;;;;;;;8.77;7.60;;;10.40;99.90;;;;;;5040144;28;20040;-81
2022/05/25 01:24:24;;;;;;;8.55;7.65;;;10.40;99.90;;;;;;5024531;28;20025;-81
2022/05/25 01:27:09;;;;;;;7.68;6.85;;;10.30;99.90;;;;;;5020861;28;20048;-81
2022/05/25 01:30:14;;;;;;;11.40;9.07;;;10.30;99.90;;;;;;5025026;28;20026;-79
2022/05/25 01:32:58;;;;;;;10.13;8.25;;;10.30;99.90;;;;;;4984744;28;20029;-78
2022/05/25 01:35:30;;;;;;;11.57;8.50;;;10.30;99.90;;;;;;5026095;28;20036;-78
2022/05/25 01:38:17;;;;;;;10.07;9.05;;;10.20;99.90;;;;;;5022773;28;20389;-78
2022/05/25 01:40:56;;;;;;;10.35;8.15;;;10.30;99.90;;;;;;5024156;28;20041;-78
2022/05/25 01:43:48;;;;;;;7.97;7.05;;;10.30;99.90;;;;;;5015928;28;20042;-77
2022/05/25 01:46:37;;;;;;;11.20;8.53;;;10.20;99.90;;;;;;5038899;28;20045;-78
2022/05/25 01:49:14;;;;;;;9.18;8.27;;;10.20;99.90;;;;;;4998215;28;20048;-78
2022/05/25 01:51:53;;;;;;;7.68;6.93;;;10.20;99.90;;;;;;5034651;28;20045;-78
2022/05/25 01:54:24;;;;;;;11.00;9.50;;;10.20;99.90;;;;;;4991945;28;20048;-78
2022/05/25 01:56:58;;;;;;;11.25;10.15;;;10.20;99.90;;;;;;5036523;28;21130;-78
2022/05/25 01:59:28;;;;;;;10.27;8.80;;;10.10;99.90;;;;;;5003844;28;20405;-78
2022/05/25 02:04:54;;;;;;;12.25;9.10;;;10.10;99.90;;;;;;5026036;28;20025;-80
2022/05/25 02:07:59;;;;;;;12.30;8.77;;;10.10;99.90;;;;;;5020478;28;20046;-81
2022/05/25 02:10:45;;;;;;;9.40;7.75;;;10.10;99.90;;;;;;5020638;28;20037;-81
2022/05/25 02:13:23;;;;;;;9.98;7.63;;;10.20;99.90;;;;;;5038578;28;20025;-81
2022/05/25 02:16:31;;;;;;;6.45;5.72;;;10.10;99.90;;;;;;5029288;28;20045;-80
2022/05/25 02:19:55;;;;;;;8.68;7.80;;;10.10;99.90;;;;;;5024992;28;20044;-78
2022/05/25 02:22:41;;;;;;;8.15;7.35;;;10.10;99.90;;;;;;5063119;28;20122;-78
2022/05/25 02:26:09;;;;;;;7.82;6.00;;;10.00;99.90;;;;;;5046928;28;20364;-78
2022/05/25 02:28:52;;;;;;;11.05;7.10;;;10.00;99.90;;;;;;5060941;28;20037;-78
2022/05/25 02:31:29;;;;;;;7.03;5.55;;;10.00;99.90;;;;;;5045003;28;20031;-78
2022/05/25 02:34:32;;;;;;;8.02;6.18;;;10.00;99.90;;;;;;5055057;28;20048;-77
2022/05/25 02:37:18;;;;;;;8.02;5.40;;;10.00;99.90;;;;;;5049334;28;20392;-81
2022/05/25 02:40:04;;;;;;;10.20;7.78;;;10.00;99.90;;;;;;5016924;28;20045;-80
2022/05/25 02:42:31;;;;;;;9.68;7.40;;;10.00;99.90;;;;;;5044104;28;20063;-81
2022/05/25 02:45:01;;;;;;;9.25;8.02;;;10.00;99.90;;;;;;5048599;28;20033;-80
2022/05/25 02:47:34;;;;;;;10.45;8.75;;;9.90;99.90;;;;;;5048483;28;20041;-81
2022/05/25 02:50:13;;;;;;;9.63;6.85;;;9.90;99.90;;;;;;5008081;28;20045;-80
2022/05/25 02:52:40;;;;;;;8.73;6.38;;;9.90;99.90;;;;;;5017935;28;20159;-81
2022/05/25 02:55:20;;;;;;;9.27;7.47;;;9.90;99.90;;;;;;5021292;28;20045;-80
2022/05/25 02:57:52;;;;;;;9.80;6.65;;;9.90;99.90;;;;;;5004947;28;20396;-81
2022/05/25 03:00:37;;;;;;;8.93;6.20;;;9.90;99.90;;;;;;4980438;28;20050;-80
2022/05/25 03:03:22;;;;;;;11.35;7.53;;;9.90;99.90;;;;;;4964959;28;20199;-80
2022/05/25 03:06:28;;;;;;;9.85;7.63;;;9.80;99.90;;;;;;4948419;28;20517;-80
2022/05/25 03:09:11;;;;;;;9.40;7.80;;;9.80;99.90;;;;;;4994200;28;20038;-80
2022/05/25 03:11:45;;;;;;;8.80;7.28;;;9.80;99.90;;;;;;4979068;28;20090;-80
2022/05/25 03:14:49;;;;;;;8.38;7.22;;;9.80;99.90;;;;;;4975658;28;20493;-81
2022/05/25 03:17:19;;;;;;;7.78;6.53;;;9.70;99.90;;;;;;4961790;28;20498;-81
2022/05/25 03:19:55;;;;;;;7.30;6.50;;;9.70;99.90;;;;;;4976935;28;20077;-81
2022/05/25 03:22:23;;;;;;;9.27;6.65;;;9.70;99.90;;;;;;4998785;28;20056;-81
2022/05/25 03:24:50;;;;;;;9.38;8.45;;;9.70;99.90;;;;;;5015200;28;20037;-81
2022/05/25 03:27:17;;;;;;;10.27;7.97;;;9.70;99.90;;;;;;5000816;28;20037;-81
2022/05/25 03:29:44;;;;;;;8.70;6.75;;;9.70;99.90;;;;;;5006504;28;20508;-82
2022/05/25 03:32:11;;;;;;;6.18;5.32;;;9.70;99.90;;;;;;5020573;28;20041;-82
2022/05/25 03:34:55;;;;;;;8.85;6.95;;;9.70;99.90;;;;;;5044300;28;20024;-82
2022/05/25 03:38:11;;;;;;;6.78;4.53;;;9.70;99.90;;;;;;5008603;28;20395;-83
2022/05/25 03:40:59;;;;;;;8.18;6.45;;;9.70;99.90;;;;;;5044324;28;20044;-82
2022/05/25 03:43:38;;;;;;;7.43;6.07;;;9.70;99.90;;;;;;5026554;28;20044;-82
2022/05/25 03:46:19;;;;;;;5.82;4.72;;;9.70;99.90;;;;;;5025025;28;20051;-82
2022/05/25 03:48:54;;;;;;;8.48;7.10;;;9.70;99.90;;;;;;5032576;28;20085;-82
2022/05/25 03:51:30;;;;;;;7.07;6.18;;;9.80;99.90;;;;;;5062845;28;20357;-81
2022/05/25 03:54:19;;;;;;;7.47;4.97;;;9.70;99.90;;;;;;5065084;28;20024;-82
2022/05/25 03:57:13;;;;;;;10.77;7.70;;;9.70;99.90;;;;;;5061081;28;20400;-83
2022/05/25 03:59:40;;;;;;;6.55;5.30;;;9.80;99.90;;;;;;5057003;28;20075;-82
2022/05/25 04:02:21;;;;;;;9.95;6.80;;;9.80;99.90;;;;;;5044552;28;20032;-82
2022/05/25 04:05:10;;;;;;;37.25;13.23;;;9.80;99.90;;;;;;5039649;28;20052;-82
2022/05/25 04:07:58;;;;;;;13.88;6.78;;;9.90;99.90;;;;;;5009714;28;20039;-82
2022/05/25 04:13:52;;;;;;;6.22;4.75;;;10.00;99.90;;;;;;5047580;28;20052;-82
2022/05/25 04:17:05;;;;;;;8.98;4.80;;;10.00;99.90;;;;;;5047130;28;20063;-78
2022/05/25 04:19:38;;;;;;;8.00;5.57;;;10.10;99.90;;;;;;4993741;28;20086;-78
2022/05/25 04:22:08;;;;;;;7.40;6.13;;;10.20;99.90;;;;;;4997987;28;20560;-78
2022/05/25 04:24:56;;;;;;;7.53;5.72;;;10.30;99.90;;;;;;4996842;28;20041;-78
2022/05/25 04:27:26;;;;;;;6.25;5.50;;;10.30;99.90;;;;;;4999246;28;20049;-79
2022/05/25 04:29:52;;;;;;;8.38;5.72;;;10.50;99.90;;;;;;5000381;28;20025;-79
2022/05/25 04:32:20;;;;;;;7.82;5.65;;;10.50;99.90;;;;;;4967113;28;20041;-81
2022/05/25 04:34:59;;;;;;;10.35;6.70;;;10.70;99.90;;;;;;5000278;28;20045;-79
2022/05/25 04:37:56;;;;;;;8.48;7.18;;;10.70;99.90;;;;;;4980345;28;20058;-80
2022/05/25 04:41:41;;;;;;;6.43;5.63;;;10.80;99.90;;;;;;4998790;28;20425;-79
2022/05/25 04:44:25;;;;;;;8.57;7.00;;;11.00;99.90;;;;;;4989492;28;20042;-79
2022/05/25 04:47:15;;;;;;;9.60;7.35;;;11.10;99.90;;;;;;4983004;28;20060;-80
2022/05/25 04:49:44;;;;;;;27.88;20.80;;;11.20;99.90;;;;;;4983342;28;20029;-81
2022/05/25 04:52:31;;;;;;;17.88;13.73;;;11.40;99.90;;;;;;4985306;28;20026;-80
2022/05/25 04:55:00;;;;;;;18.50;14.07;;;11.50;99.90;;;;;;4974145;28;20041;-80
2022/05/25 04:57:58;;;;;;;13.48;9.55;;;11.70;99.90;;;;;;4969235;28;20045;-81
2022/05/25 05:01:35;;;;;;;14.63;11.70;;;11.80;99.90;;;;;;4989175;28;20482;-81
2022/05/25 05:04:32;;;;;;;14.02;9.55;;;12.00;99.90;;;;;;5019947;28;20045;-81
2022/05/25 05:07:18;;;;;;;10.43;8.18;;;12.10;99.90;;;;;;5024763;28;20041;-79
2022/05/25 05:09:52;;;;;;;11.48;8.68;;;12.30;99.90;;;;;;5064606;28;20028;-79
2022/05/25 05:12:36;;;;;;;12.95;9.25;;;12.40;99.90;;;;;;5039869;28;20041;-81
2022/05/25 05:15:16;;;;;;;11.40;9.00;;;12.50;99.90;;;;;;5060464;28;20063;-81
2022/05/25 05:18:12;;;;;;;8.45;7.53;;;12.60;99.90;;;;;;5065888;28;20044;-80
2022/05/25 05:21:22;;;;;;;8.43;7.43;;;12.70;99.90;;;;;;5052754;28;20056;-80
2022/05/25 05:23:57;;;;;;;12.63;8.30;;;12.90;99.90;;;;;;5051517;28;20029;-80
2022/05/25 05:26:46;;;;;;;9.07;8.15;;;13.00;99.90;;;;;;5066307;28;20282;-80
2022/05/25 05:29:15;;;;;;;10.82;8.88;;;13.10;99.90;;;;;;5018422;28;20044;-80
2022/05/25 05:31:43;;;;;;;8.95;7.93;;;13.20;99.90;;;;;;5049583;28;20047;-82
2022/05/25 05:34:17;;;;;;;8.88;7.97;;;13.30;99.90;;;;;;5051271;28;20036;-83
2022/05/25 05:36:51;;;;;;;9.38;7.65;;;13.30;99.90;;;;;;5034070;28;20032;-83
2022/05/25 05:39:56;;;;;;;10.07;7.22;;;13.50;99.90;;;;;;5053416;28;20051;-79
2022/05/25 05:42:25;;;;;;;9.85;8.18;;;13.60;99.90;;;;;;5070875;28;20388;-79
2022/05/25 05:44:59;;;;;;;9.45;6.65;;;13.70;99.90;;;;;;5071138;28;20467;-86
2022/05/25 05:47:40;;;;;;;10.30;7.57;;;13.80;99.90;;;;;;5031530;28;20032;-84
2022/05/25 05:50:08;;;;;;;9.05;7.78;;;14.00;99.90;;;;;;5035437;28;20388;-83
2022/05/25 05:52:37;;;;;;;11.00;6.35;;;14.10;99.90;;;;;;5032757;28;20049;-88
2022/05/25 05:55:05;;;;;;;9.55;6.70;;;14.20;99.90;;;;;;5000974;28;20032;-88
2022/05/25 05:57:34;;;;;;;10.43;7.18;;;14.20;99.90;;;;;;5029948;28;20047;-88
2022/05/25 06:00:02;;;;;;;7.32;5.97;;;14.30;99.90;;;;;;5038005;28;20041;-88
2022/05/25 06:02:28;;;;;;;7.53;5.63;;;14.40;99.90;;;;;;5018369;28;20045;-83
2022/05/25 06:04:55;;;;;;;10.82;5.70;;;14.50;99.90;;;;;;5031647;28;20484;-83
2022/05/25 06:07:21;;;;;;;8.15;5.95;;;14.80;99.90;;;;;;5032403;28;20037;-82
2022/05/25 06:09:48;;;;;;;12.10;6.03;;;15.20;99.90;;;;;;5033278;28;20029;-83
2022/05/25 06:12:15;;;;;;;6.30;5.00;;;15.50;99.90;;;;;;5012233;28;20121;-83
2022/05/25 06:14:42;;;;;;;11.68;5.57;;;15.90;99.90;;;;;;5046762;28;20074;-87
2022/05/25 06:19:54;;;;;;;11.15;6.13;;;16.40;99.90;;;;;;5032245;28;20040;-88
2022/05/25 06:22:21;;;;;;;6.50;3.97;;;16.40;99.90;;;;;;5031718;28;20415;-88
2022/05/25 06:24:52;;;;;;;8.57;4.57;;;16.50;99.90;;;;;;5033284;28;20039;-88
2022/05/25 06:27:21;;;;;;;13.27;5.38;;;16.60;99.90;;;;;;5031298;28;20031;-89
2022/05/25 06:29:49;;;;;;;6.80;4.90;;;16.50;99.90;;;;;;5015161;28;20020;-89
2022/05/25 06:32:20;;;;;;;5.90;3.65;;;16.50;99.90;;;;;;5032062;28;20050;-88
2022/05/25 06:34:47;;;;;;;7.40;4.30;;;16.50;99.90;;;;;;5048773;28;20036;-88
2022/05/25 06:37:16;;;;;;;8.40;3.88;;;16.60;99.90;;;;;;5025035;28;20039;-84
2022/05/25 06:39:42;;;;;;;8.63;4.43;;;16.70;99.90;;;;;;5064169;28;20044;-88
2022/05/25 06:42:12;;;;;;;6.95;4.13;;;17.00;99.90;;;;;;5018179;28;20029;-87
2022/05/25 06:45:00;;;;;;;8.50;3.92;;;17.30;99.90;;;;;;5036224;28;20052;-87
2022/05/25 06:47:32;;;;;;;6.38;3.83;;;17.50;99.90;;;;;;5041607;28;20048;-87
2022/05/25 06:50:29;;;;;;;9.50;3.75;;;17.50;99.90;;;;;;5062631;28;20047;-83
2022/05/25 06:53:04;;;;;;;7.93;5.07;;;17.50;99.90;;;;;;5063072;28;20036;-83
2022/05/25 06:56:01;;;;;;;5.13;3.42;;;17.50;99.90;;;;;;5009932;28;20041;-82
2022/05/25 06:58:46;;;;;;;6.40;3.50;;;17.50;99.90;;;;;;5051806;28;20039;-87
2022/05/25 07:01:14;;;;;;;7.40;3.88;;;17.50;99.90;;;;;;5043413;28;20032;-86
2022/05/25 07:03:42;;;;;;;4.30;3.10;;;17.60;99.90;;;;;;5063814;28;20047;-86
2022/05/25 07:06:20;;;;;;;7.30;3.35;;;17.70;99.90;;;;;;5046537;28;20993;-86
2022/05/25 07:08:48;;;;;;;6.30;3.53;;;17.70;99.90;;;;;;5063896;28;20047;-87
2022/05/25 07:11:19;;;;;;;8.88;4.18;;;17.80;99.90;;;;;;5042934;28;20041;-87
2022/05/25 07:13:48;;;;;;;9.55;5.30;;;17.90;99.90;;;;;;5044414;28;20036;-87
2022/05/25 07:16:18;;;;;;;7.28;3.58;;;18.00;99.90;;;;;;5040937;28;20032;-87
2022/05/25 07:18:46;;;;;;;3.30;2.53;;;18.00;99.90;;;;;;5046058;28;20037;-90
2022/05/25 07:21:25;;;;;;;6.00;3.37;;;18.00;99.90;;;;;;5027098;28;20488;-88
2022/05/25 07:23:56;;;;;;;6.63;4.07;;;18.10;99.90;;;;;;5044784;28;20302;-88
2022/05/25 07:26:39;;;;;;;7.15;3.53;;;18.10;99.90;;;;;;5041786;28;20043;-88
2022/05/25 07:29:07;;;;;;;10.57;3.95;;;18.20;99.90;;;;;;5041876;28;20044;-88
2022/05/25 07:31:36;;;;;;;8.02;3.83;;;18.30;99.90;;;;;;5043833;28;20353;-90
2022/05/25 07:34:11;;;;;;;3.97;2.60;;;18.40;99.90;;;;;;5028286;28;20033;-87
2022/05/25 07:36:41;;;;;;;5.35;2.72;;;18.80;99.90;;;;;;5024166;28;20063;-88
2022/05/25 07:39:13;;;;;;;6.88;2.92;;;19.10;99.90;;;;;;5043267;28;20387;-80
2022/05/25 07:41:45;;;;;;;7.63;3.15;;;19.30;99.90;;;;;;5041210;28;20033;-81
2022/05/25 07:44:18;;;;;;;6.07;3.20;;;19.30;99.90;;;;;;5045143;28;20056;-81
2022/05/25 07:46:57;;;;;;;9.35;3.65;;;19.40;99.90;;;;;;5048299;28;20044;-86
2022/05/25 07:49:45;;;;;;;5.70;2.20;;;19.50;99.90;;;;;;5052360;28;20044;-85
2022/05/25 07:52:36;;;;;;;9.20;3.65;;;19.30;99.90;;;;;;4963102;28;20038;-85
2022/05/25 07:55:06;;;;;;;6.28;3.90;;;19.20;99.90;;;;;;5055884;28;20049;-85
2022/05/25 07:57:48;;;;;;;9.98;4.10;;;19.20;99.90;;;;;;5042470;28;20392;-84
2022/05/25 08:00:41;;;;;;;7.65;4.43;;;19.00;99.90;;;;;;5016451;28;20041;-83
2022/05/25 08:06:24;;;;;;;6.68;3.58;;;18.70;99.90;;;;;;5042325;28;20029;-82
2022/05/25 08:09:01;;;;;;;6.32;3.10;;;18.50;99.90;;;;;;5028497;28;20037;-82
2022/05/25 08:11:34;;;;;;;9.07;3.50;;;18.40;99.90;;;;;;5033952;28;20052;-90
2022/05/25 08:14:18;;;;;;;6.60;3.20;;;18.20;99.90;;;;;;5034812;28;20696;-90
2022/05/25 08:17:20;;;;;;;6.70;3.72;;;18.00;99.90;;;;;;5025346;28;20048;-89
2022/05/25 08:19:51;;;;;;;4.25;2.78;;;17.90;99.90;;;;;;5029406;28;20036;-89
2022/05/25 08:25:29;;;;;;;5.30;2.45;;;17.90;99.90;;;;;;5034814;28;20480;-87
2022/05/25 08:28:23;;;;;;;4.68;2.47;;;18.00;99.90;;;;;;5051886;28;20040;-87
2022/05/25 08:31:29;;;;;;;8.75;3.75;;;18.00;99.90;;;;;;5043016;28;20056;-81
2022/05/25 08:34:10;;;;;;;5.90;3.70;;;18.40;99.90;;;;;;5014534;28;20033;-87
2022/05/25 08:36:55;;;;;;;8.35;3.55;;;18.70;99.90;;;;;;5039726;28;20044;-89
2022/05/25 08:39:24;;;;;;;8.77;3.55;;;18.90;99.90;;;;;;5023774;28;20522;-80
2022/05/25 08:41:59;;;;;;;8.13;3.33;;;19.00;99.90;;;;;;5041660;28;20515;-80
2022/05/25 08:44:26;;;;;;;7.90;4.15;;;18.90;99.90;;;;;;5046193;28;20025;-80
2022/05/25 08:46:55;;;;;;;4.68;2.88;;;18.80;99.90;;;;;;5030772;28;20048;-80
2022/05/25 08:49:24;;;;;;;6.22;3.50;;;18.80;99.90;;;;;;5045042;28;20404;-90
2022/05/25 08:51:55;;;;;;;5.55;3.40;;;19.00;99.90;;;;;;5031614;28;20477;-89
2022/05/25 08:54:23;;;;;;;6.00;3.58;;;19.40;99.90;;;;;;5016640;28;20342;-81
2022/05/25 08:57:00;;;;;;;3.47;2.22;;;19.80;99.90;;;;;;5041595;28;20037;-81
2022/05/25 08:59:30;;;;;;;4.10;1.98;;;20.00;99.90;;;;;;5062067;28;20033;-81
2022/05/25 09:02:02;;;;;;;4.57;3.28;;;20.40;99.90;;;;;;5027279;28;20319;-80
2022/05/25 09:04:42;;;;;;;3.55;2.70;;;20.70;99.90;;;;;;5044917;28;20039;-81
2022/05/25 09:07:36;;;;;;;5.03;3.35;;;20.90;99.90;;;;;;5042799;28;20067;-81
2022/05/25 09:10:03;;;;;;;6.13;4.45;;;20.80;99.90;;;;;;5042570;28;21268;-81
2022/05/25 09:12:42;;;;;;;4.72;4.20;;;20.80;99.90;;;;;;5044750;28;20033;-90
2022/05/25 09:15:32;;;;;;;7.93;4.15;;;20.80;99.90;;;;;;5012251;28;20028;-91
2022/05/25 09:18:13;;;;;;;4.80;3.38;;;20.90;99.50;;;;;;5024810;28;20025;-90
2022/05/25 09:20:49;;;;;;;3.30;2.88;;;20.80;99.20;;;;;;5028083;28;20284;-89
2022/05/25 09:23:17;;;;;;;5.03;3.47;;;20.90;98.80;;;;;;5050927;28;20029;-90
2022/05/25 09:25:46;;;;;;;4.10;2.90;;;21.00;98.80;;;;;;5016670;28;20028;-89
2022/05/25 09:28:19;;;;;;;5.07;3.90;;;21.30;98.50;;;;;;5027552;28;20044;-89
2022/05/25 09:30:50;;;;;;;4.70;3.65;;;21.60;97.80;;;;;;5016179;28;20037;-89
2022/05/25 09:33:56;;;;;;;5.43;4.82;;;21.90;97.00;;;;;;5016086;28;20504;-90
2022/05/25 09:36:29;;;;;;;5.32;4.32;;;22.10;96.10;;;;;;5032583;28;20025;-90
2022/05/25 09:39:14;;;;;;;8.63;7.13;;;22.10;95.80;;;;;;5032100;28;20067;-89
2022/05/25 09:41:45;;;;;;;8.32;7.60;;;22.00;95.20;;;;;;5052294;28;20043;-87
2022/05/25 09:44:42;;;;;;;10.23;9.18;;;21.70;95.10;;;;;;5049200;28;20032;-83
2022/05/25 09:48:05;;;;;;;14.30;12.90;;;21.40;95.30;;;;;;5060798;28;20033;-83
2022/05/25 09:51:12;;;;;;;13.80;12.60;;;21.00;95.20;;;;;;5028594;28;20411;-83
2022/05/25 09:54:35;;;;;;;13.98;12.77;;;20.50;95.90;;;;;;5019392;28;20021;-85
2022/05/25 09:58:18;;;;;;;;;;;;;;;;;;;;;
2022/05/25 10:04:06;;;;;;;18.80;17.13;;;21.50;95.40;;;;;;4992666;28;20052;-88
2022/05/25 10:06:48;;;;;;;14.60;13.20;;;21.40;95.10;;;;;;4984403;28;20041;-89
2022/05/25 10:09:31;;;;;;;10.48;9.57;;;21.40;95.20;;;;;;5022278;28;20041;-88
2022/05/25 10:12:32;;;;;;;10.52;9.68;;;21.60;94.70;;;;;;5021763;28;20048;-90
2022/05/25 10:15:33;;;;;;;11.50;10.48;;;21.90;94.20;;;;;;5004694;28;20041;-88
2022/05/25 10:18:04;;;;;;;9.10;8.30;;;22.50;93.50;;;;;;4988460;28;20045;-88
2022/05/25 10:21:13;;;;;;;11.73;10.52;;;22.70;92.50;;;;;;5007262;28;20049;-80
2022/05/25 10:24:27;;;;;;;8.38;7.03;;;22.90;91.80;;;;;;4988940;28;20060;-80
2022/05/25 10:27:28;;;;;;;7.60;6.38;;;23.20;91.10;;;;;;4998619;28;20049;-79
2022/05/25 10:37:06;;;;;;;7.13;6.40;;;23.80;88.50;;;;;;5032585;28;20048;-79
2022/05/25 10:39:54;;;;;;;6.85;5.93;;;23.90;87.60;;;;;;4986409;28;20040;-80
2022/05/25 10:42:46;;;;;;;6.75;6.10;;;23.90;87.30;;;;;;5001178;28;20508;-79
2022/05/25 10:45:22;;;;;;;;;;;23.70;86.50;;;;;;5015811;28;20532;-78
2022/05/25 10:48:41;;;;;;;4.97;4.30;;;23.30;86.30;;;;;;5011556;28;20025;-78
2022/05/25 10:55:58;;;;;;;3.53;3.15;;;22.40;85.80;;;;;;5018326;28;20048;-82
2022/05/25 10:59:30;;;;;;;2.90;2.45;;;22.70;85.30;;;;;;4956057;28;20517;-86
2022/05/25 11:02:36;;;;;;;3.63;2.05;;;22.90;84.00;;;;;;4966039;28;20380;-87
2022/05/25 11:05:49;;;;;;;4.13;2.05;;;22.60;83.40;;;;;;4919065;28;20063;-86
2022/05/25 11:08:28;;;;;;;2.92;1.90;;;22.20;84.30;;;;;;4925650;28;20478;-78
2022/05/25 11:11:09;;;;;;;3.45;1.95;;;21.90;85.20;;;;;;4924566;28;20039;-78
2022/05/25 11:14:30;;;;;;;2.63;2.05;;;21.50;85.90;;;;;;4921031;28;20051;-80
2022/05/25 11:17:30;;;;;;;3.47;2.78;;;21.10;87.40;;;;;;4917149;28;20046;-81
2022/05/25 11:20:29;;;;;;;2.85;1.25;;;20.90;87.70;;;;;;4923450;28;20492;-81
2022/05/25 11:23:41;;;;;;;4.95;1.50;;;21.20;88.60;;;;;;4913394;28;20039;-82
2022/05/25 11:26:30;;;;;;;3.00;1.20;;;22.20;88.20;;;;;;4917422;28;20051;-81
2022/05/25 11:29:33;;;;;;;2.30;1.20;;;23.10;86.10;;;;;;4924462;28;20399;-82
2022/05/25 11:32:19;;;;;;;2.85;1.00;;;23.90;83.60;;;;;;4920897;28;20051;-81
2022/05/25 11:35:11;;;;;;;3.35;1.10;;;23.70;82.00;;;;;;4945569;28;20434;-81
2022/05/25 11:38:04;;;;;;;6.28;1.25;;;23.10;81.90;;;;;;4950211;28;20514;-81
2022/05/25 11:41:11;;;;;;;2.80;0.70;;;22.70;82.00;;;;;;4953174;28;20039;-81
2022/05/25 11:44:16;;;;;;;2.53;0.50;;;23.30;81.30;;;;;;4941409;28;20035;-81
2022/05/25 11:46:45;;;;;;;4.85;0.60;;;24.10;79.60;;;;;;4984326;28;20046;-80
2022/05/25 11:49:21;;;;;;;1.73;0.40;;;23.90;77.70;;;;;;5016536;28;20083;-80
2022/05/25 11:52:17;;;;;;;1.90;0.50;;;23.50;78.50;;;;;;5050017;28;20469;-80
2022/05/25 11:54:53;;;;;;;4.00;0.50;;;23.30;79.30;;;;;;5066222;28;20040;-80
2022/05/25 11:57:59;;;;;;;1.40;0.40;;;23.50;78.70;;;;;;5044885;28;20472;-80
2022/05/25 12:00:44;;;;;;;2.20;0.60;;;24.50;76.90;;;;;;5043436;28;20510;-82
2022/05/25 12:03:36;;;;;;;2.90;0.50;;;25.80;74.50;;;;;;5034648;28;20494;-83
2022/05/25 12:06:27;;;;;;;2.20;0.40;;;26.90;71.70;;;;;;5046260;28;20041;-83
2022/05/25 12:09:17;;;;;;;2.22;0.45;;;27.60;68.30;;;;;;5051048;28;20040;-83
2022/05/25 12:12:09;;;;;;;1.63;0.50;;;28.10;64.00;;;;;;5033988;28;20492;-83
2022/05/25 12:14:57;;;;;;;1.88;0.40;;;28.20;61.70;;;;;;5050593;28;20387;-86
2022/05/25 12:17:30;;;;;;;1.90;0.30;;;27.70;61.20;;;;;;5055337;28;20040;-86
2022/05/25 12:19:59;;;;;;;0.68;0.30;;;26.90;61.20;;;;;;5033206;28;20048;-86
2022/05/25 12:22:34;;;;;;;1.10;0.30;;;26.50;61.90;;;;;;5033991;28;20048;-84
2022/05/25 12:25:08;;;;;;;2.33;0.30;;;26.10;62.40;;;;;;5042952;28;20384;-83
2022/05/25 12:27:43;;;;;;;1.50;0.30;;;25.70;61.90;;;;;;5021275;28;20031;-84
2022/05/25 12:30:15;;;;;;;1.38;0.35;;;25.50;62.50;;;;;;5068378;28;20055;-83
2022/05/25 12:32:45;;;;;;;2.38;0.30;;;25.50;62.30;;;;;;5066376;28;20368;-83
2022/05/25 12:35:14;;;;;;;3.33;0.40;;;25.80;61.90;;;;;;5034782;28;20028;-83
2022/05/25 12:37:45;;;;;;;1.65;0.30;;;26.40;61.70;;;;;;5028403;28;20024;-86
2022/05/25 12:40:39;;;;;;;2.90;0.40;;;26.50;61.10;;;;;;5054112;28;20029;-87
2022/05/25 12:43:52;;;;;;;1.55;0.40;;;25.90;61.10;;;;;;5054154;28;20059;-87
2022/05/25 12:50:08;;;;;;;1.23;0.40;;;24.30;63.20;;;;;;5048235;28;20051;-86
2022/05/25 12:53:26;;;;;;;0.98;0.30;;;23.80;64.30;;;;;;5032693;28;20047;-86
2022/05/25 12:56:30;;;;;;;0.90;0.30;;;23.40;65.00;;;;;;5043040;28;20615;-86
2022/05/25 12:59:24;;;;;;;1.35;0.30;;;23.10;66.30;;;;;;5065503;28;20395;-86
2022/05/25 13:02:26;;;;;;;3.20;0.47;;;22.90;66.90;;;;;;5065529;28;20407;-88
2022/05/25 13:05:52;;;;;;;2.95;1.17;;;22.70;67.80;;;;;;5067857;28;20040;-87
2022/05/25 13:09:11;;;;;;;1.50;0.47;;;22.30;68.40;;;;;;4985812;28;20142;-88
2022/05/25 13:12:37;;;;;;;3.50;0.88;;;22.10;69.20;;;;;;5003202;28;20065;-84
2022/05/25 13:15:52;;;;;;;2.88;0.50;;;22.10;69.70;;;;;;5071103;28;20032;-83
2022/05/25 13:19:27;;;;;;;2.55;0.32;;;22.30;69.60;;;;;;5049602;28;20362;-82
2022/05/25 13:22:36;;;;;;;2.08;0.50;;;22.20;69.50;;;;;;5070669;28;20040;-82
2022/05/25 13:25:32;;;;;;;2.20;0.37;;;21.90;69.80;;;;;;5050356;28;20020;-82
2022/05/25 13:28:18;;;;;;;1.38;0.40;;;21.70;70.50;;;;;;5064154;28;20554;-82
2022/05/25 13:31:14;;;;;;;1.95;0.40;;;21.50;70.80;;;;;;5063415;28;20044;-82
2022/05/25 13:33:52;;;;;;;;;;;21.30;71.30;;;;;;5038583;28;20032;-82
2022/05/25 13:36:57;;;;;;;2.03;0.40;;;21.20;71.60;;;;;;5047101;28;19920;-81
2022/05/25 13:39:26;;;;;;;2.13;0.40;;;21.70;71.50;;;;;;5066691;28;20044;-81
2022/05/25 13:42:18;;;;;;;2.47;0.60;;;22.30;70.70;;;;;;5047658;28;20052;-82
2022/05/25 13:45:10;;;;;;;2.97;0.50;;;23.20;70.00;;;;;;5063761;28;20048;-81
2022/05/25 13:48:25;;;;;;;;;;;;;;;;;;;;;
2022/05/25 13:51:31;;;;;;;3.80;0.40;;;24.70;65.30;;;;;;5009314;28;20049;-82
2022/05/25 13:54:01;;;;;;;1.73;0.40;;;25.30;63.80;;;;;;4984952;28;20413;-82
2022/05/25 13:56:36;;;;;;;2.00;0.47;;;25.20;62.80;;;;;;5060677;28;20294;-82
2022/05/25 13:59:12;;;;;;;3.20;0.40;;;24.80;63.60;;;;;;5045931;28;20480;-88
2022/05/25 14:01:53;;;;;;;1.88;0.43;;;24.20;64.20;;;;;;5043150;28;20066;-89
2022/05/25 14:07:37;;;;;;;3.53;0.40;;;22.90;66.80;;;;;;5043750;28;20946;-91
2022/05/25 14:14:08;;;;;;;1.27;0.40;;;22.20;66.80;;;;;;4990012;28;20040;-89
2022/05/25 14:17:22;;;;;;;2.88;0.40;;;22.10;67.00;;;;;;5043070;28;20048;-90
2022/05/25 14:20:22;;;;;;;1.15;0.40;;;22.20;67.30;;;;;;4980374;28;20038;-88
2022/05/25 14:27:24;;;;;;;4.00;0.70;;;22.90;66.90;;;;;;4974955;28;20394;-83
2022/05/25 14:34:18;;;;;;;2.90;0.40;;;24.00;64.50;;;;;;4908330;29;20050;-87
2022/05/25 14:38:05;;;;;;;6.47;0.50;;;23.80;64.40;;;;;;4897714;29;20054;-84
2022/05/25 14:44:57;;;;;;;1.10;0.50;;;22.80;65.20;;;;;;4890984;29;20055;-88
2022/05/25 14:47:43;;;;;;;2.17;0.50;;;22.60;66.10;;;;;;4910800;29;20055;-85
2022/05/25 14:50:41;;;;;;;4.00;0.73;;;23.00;65.70;;;;;;4907619;29;20039;-89
2022/05/25 14:53:59;;;;;;;;;;;;;;;;;;;;;
2022/05/25 14:56:57;;;;;;;1.77;0.50;;;23.20;65.10;;;;;;4879945;29;20401;-87
2022/05/25 14:59:33;;;;;;;4.97;0.40;;;23.20;64.80;;;;;;4888871;29;20055;-85
2022/05/25 15:02:05;;;;;;;0.98;0.35;;;23.00;65.20;;;;;;4945545;28;20045;-85
2022/05/25 15:04:35;;;;;;;1.55;0.50;;;22.90;65.20;;;;;;4982071;28;20031;-86
2022/05/25 15:07:05;;;;;;;2.92;0.50;;;22.70;65.50;;;;;;4980596;28;20030;-86
2022/05/25 15:09:42;;;;;;;2.22;0.52;;;22.60;65.90;;;;;;4983241;28;20140;-91
2022/05/25 15:39:08;;;;;;;2.47;0.40;;;21.10;70.70;;;;;;4969099;28;20041;-88